Terminal Aerodrome Forecast
Issued by NWS Paducah, KY

Home | Current Version | Previous Version | Graphics & Text | Print | Product List | Glossary On
Versions: 1 2 3 4 5 6 7 8 9 10 11 12 13 14 15 16 17 18
828
FTUS43 KPAH 120322 AAB
TAFPAH
TAF AMD
KPAH 120322Z 1203/1224 08006KT P6SM BKN090 OVC150
      TEMPO 1206/1209 -SN BKN030 OVC080
     FM120900 06004KT 6SM -SN BR BKN012 OVC040
     FM121300 35004KT P6SM SCT040 BKN070
     FM121800 34006KT P6SM OVC022=

USA.gov is the U.S. government's official web portal to all federal, state and local government web resources and services.